createdAt,value
2022-11-26T00:02:25.975Z,55.03
2022-11-26T00:04:56.408Z,55.32
2022-11-26T00:07:28.681Z,55.21
2022-11-26T00:09:58.552Z,55.43
2022-11-26T00:12:35.042Z,55.36
2022-11-26T00:15:23.429Z,55.54
2022-11-26T00:17:54.260Z,55.87
2022-11-26T00:20:31.893Z,55.45
2022-11-26T00:23:03.351Z,55.42
2022-11-26T00:25:42.469Z,55.35
2022-11-26T00:28:38.793Z,55.61
2022-11-26T00:31:14.081Z,55.47
2022-11-26T00:33:42.483Z,55.73
2022-11-26T00:36:28.921Z,55.44
2022-11-26T00:39:06.310Z,55.70
2022-11-26T00:41:42.155Z,55.76
2022-11-26T00:44:31.670Z,55.37
2022-11-26T00:47:00.636Z,55.79
2022-11-26T00:49:31.832Z,55.67
2022-11-26T00:51:59.674Z,55.66
2022-11-26T00:54:28.775Z,55.64
2022-11-26T00:56:56.960Z,55.76
2022-11-26T00:59:25.404Z,55.77
2022-11-26T01:01:55.047Z,55.83
2022-11-26T01:04:22.900Z,55.78
2022-11-26T01:06:51.154Z,55.87
2022-11-26T01:09:22.339Z,55.89
2022-11-26T01:11:54.456Z,56.11
2022-11-26T01:14:23.571Z,56.06
2022-11-26T01:16:56.005Z,56.11
2022-11-26T01:19:25.263Z,56.27
2022-11-26T01:21:54.043Z,56.33
2022-11-26T01:24:23.158Z,56.31
2022-11-26T01:26:51.778Z,56.32
2022-11-26T01:29:20.317Z,56.25
2022-11-26T01:31:48.603Z,56.20
2022-11-26T01:34:16.767Z,56.14
2022-11-26T01:36:45.141Z,56.15
2022-11-26T01:39:22.456Z,55.98
2022-11-26T01:42:25.465Z,56.00
2022-11-26T01:44:53.369Z,56.22
2022-11-26T01:47:29.408Z,56.00
2022-11-26T01:50:28.352Z,55.96
2022-11-26T01:53:26.761Z,56.22
2022-11-26T01:56:04.604Z,56.15
2022-11-26T01:58:40.424Z,56.18
2022-11-26T02:01:09.403Z,56.20
2022-11-26T02:03:53.181Z,56.09
2022-11-26T02:06:30.312Z,56.25
2022-11-26T02:09:04.980Z,56.36
2022-11-26T02:11:32.809Z,56.21
2022-11-26T02:14:17.366Z,56.13
2022-11-26T02:17:15.920Z,56.24
2022-11-26T02:20:26.724Z,56.27
2022-11-26T02:23:01.090Z,56.37
2022-11-26T02:25:51.800Z,56.20
2022-11-26T02:29:16.019Z,56.26
2022-11-26T02:31:59.125Z,56.32
2022-11-26T02:34:44.910Z,56.33
2022-11-26T02:37:43.954Z,56.12
2022-11-26T02:40:12.552Z,56.29
2022-11-26T02:42:40.649Z,56.22
2022-11-26T02:45:12.652Z,56.31
2022-11-26T02:47:44.921Z,56.07
2022-11-26T02:50:25.634Z,56.03
2022-11-26T02:52:58.665Z,55.96
2022-11-26T02:55:35.372Z,55.95
2022-11-26T02:58:05.827Z,56.09
2022-11-26T03:00:37.322Z,56.07
2022-11-26T03:03:23.346Z,56.14
2022-11-26T03:06:01.744Z,56.08
2022-11-26T03:08:31.440Z,56.12
2022-11-26T03:11:00.377Z,56.17
2022-11-26T03:13:28.968Z,56.00
2022-11-26T03:15:57.920Z,56.11
2022-11-26T03:18:26.226Z,56.10
2022-11-26T03:20:54.313Z,56.10
2022-11-26T03:23:22.048Z,56.02
2022-11-26T03:25:50.189Z,55.94
2022-11-26T03:28:18.409Z,56.07
2022-11-26T03:30:46.862Z,55.91
2022-11-26T03:33:14.872Z,55.90
2022-11-26T03:35:42.877Z,55.90
2022-11-26T03:38:11.580Z,55.88
2022-11-26T03:40:41.858Z,55.87
2022-11-26T03:43:09.769Z,55.85
2022-11-26T03:45:38.084Z,55.68
2022-11-26T03:48:06.732Z,55.63
2022-11-26T03:50:34.840Z,55.64
2022-11-26T03:53:03.879Z,55.64
2022-11-26T03:55:31.753Z,55.62
2022-11-26T03:57:59.991Z,55.62
2022-11-26T04:00:29.728Z,55.62
2022-11-26T04:02:57.501Z,55.80
2022-11-26T04:05:25.183Z,55.72
2022-11-26T04:07:53.249Z,55.66
2022-11-26T04:10:21.184Z,55.75
2022-11-26T04:12:49.467Z,55.77
2022-11-26T04:15:24.806Z,55.62
2022-11-26T04:17:52.597Z,55.62
2022-11-26T04:20:20.643Z,55.57
2022-11-26T04:22:48.843Z,55.41
2022-11-26T04:25:16.822Z,55.47
2022-11-26T04:27:44.786Z,55.18
2022-11-26T04:30:13.486Z,55.03
2022-11-26T04:33:02.295Z,55.04
2022-11-26T04:35:51.018Z,55.01
2022-11-26T04:38:25.967Z,54.92
2022-11-26T04:40:54.401Z,54.95
2022-11-26T04:43:22.229Z,54.90
2022-11-26T04:45:50.289Z,54.69
2022-11-26T04:48:18.827Z,54.77
2022-11-26T04:50:47.003Z,54.74
2022-11-26T04:53:16.964Z,54.71
2022-11-26T04:55:45.116Z,54.82
2022-11-26T04:58:13.253Z,54.82
2022-11-26T05:00:41.084Z,54.75
2022-11-26T05:03:09.503Z,54.79
2022-11-26T05:05:37.843Z,54.71
2022-11-26T05:08:06.459Z,54.71
2022-11-26T05:10:34.577Z,54.74
2022-11-26T05:13:02.497Z,54.82
2022-11-26T05:15:30.773Z,54.67
2022-11-26T05:17:58.871Z,54.85
2022-11-26T05:20:26.870Z,54.69
2022-11-26T05:22:55.942Z,54.70
2022-11-26T05:25:25.192Z,54.71
2022-11-26T05:27:53.317Z,54.70
2022-11-26T05:30:21.610Z,54.59
2022-11-26T05:32:49.302Z,54.82
2022-11-26T05:35:17.176Z,55.11
2022-11-26T05:37:45.627Z,55.18
2022-11-26T05:40:14.873Z,55.10
2022-11-26T05:42:43.540Z,55.47
2022-11-26T05:45:11.582Z,55.58
2022-11-26T05:47:39.277Z,55.64
2022-11-26T05:50:10.743Z,55.61
2022-11-26T05:52:38.579Z,55.75
2022-11-26T05:55:07.494Z,55.86
2022-11-26T05:57:36.643Z,55.79
2022-11-26T06:00:07.395Z,55.95
2022-11-26T06:02:39.735Z,56.23
2022-11-26T06:05:08.624Z,56.07
2022-11-26T06:07:40.546Z,56.08
2022-11-26T06:10:12.243Z,56.07
2022-11-26T06:12:40.103Z,56.05
2022-11-26T06:15:10.325Z,56.13
2022-11-26T06:17:39.445Z,56.22
2022-11-26T06:20:08.283Z,56.24
2022-11-26T06:22:41.568Z,56.32
2022-11-26T06:25:13.862Z,56.13
2022-11-26T06:27:42.382Z,56.23
2022-11-26T06:30:12.113Z,56.38
2022-11-26T06:32:40.191Z,56.17
2022-11-26T06:35:08.631Z,56.36
2022-11-26T06:37:37.434Z,56.43
2022-11-26T06:40:06.349Z,56.37
2022-11-26T06:42:34.427Z,56.45
2022-11-26T06:45:02.590Z,56.38
2022-11-26T06:47:30.537Z,56.52
2022-11-26T06:49:58.227Z,56.35
2022-11-26T06:52:25.929Z,56.54
2022-11-26T06:54:54.027Z,56.37
2022-11-26T06:57:22.931Z,56.51
2022-11-26T06:59:54.491Z,56.59
2022-11-26T07:02:22.404Z,56.44
2022-11-26T07:04:50.380Z,56.46
2022-11-26T07:07:18.211Z,56.43
2022-11-26T07:09:46.420Z,56.25
2022-11-26T07:12:16.352Z,56.13
2022-11-26T07:14:44.452Z,55.95
2022-11-26T07:17:12.361Z,56.01
2022-11-26T07:19:41.369Z,56.04
2022-11-26T07:22:09.201Z,55.95
2022-11-26T07:24:37.770Z,56.06
2022-11-26T07:27:06.584Z,55.85
2022-11-26T07:29:34.515Z,56.08
2022-11-26T07:32:02.460Z,56.04
2022-11-26T07:34:30.264Z,55.87
2022-11-26T07:36:58.400Z,55.81
2022-11-26T07:39:26.464Z,55.80
2022-11-26T07:41:54.393Z,55.74
2022-11-26T07:44:22.150Z,55.90
2022-11-26T07:46:51.201Z,55.84
2022-11-26T07:49:19.563Z,55.97
2022-11-26T07:51:47.684Z,56.15
2022-11-26T07:54:15.609Z,56.07
2022-11-26T07:56:43.595Z,56.15
2022-11-26T07:59:12.835Z,56.22
2022-11-26T08:01:41.238Z,56.29
2022-11-26T08:04:09.306Z,56.40
2022-11-26T08:06:37.164Z,56.27
2022-11-26T08:09:05.553Z,56.45
2022-11-26T08:11:34.896Z,56.37
2022-11-26T08:14:07.221Z,56.55
2022-11-26T08:16:35.353Z,56.64
2022-11-26T08:19:09.019Z,56.47
2022-11-26T08:21:36.967Z,56.66
2022-11-26T08:24:06.035Z,56.51
2022-11-26T08:26:39.698Z,56.71
2022-11-26T08:29:14.736Z,56.70
2022-11-26T08:31:46.526Z,57.14
2022-11-26T08:34:16.448Z,56.92
2022-11-26T08:37:17.388Z,57.13
2022-11-26T08:39:49.740Z,57.13
2022-11-26T08:42:18.124Z,57.19
2022-11-26T08:44:46.016Z,57.10
2022-11-26T08:47:14.312Z,57.31
2022-11-26T08:49:42.494Z,57.36
2022-11-26T08:52:10.668Z,57.41
2022-11-26T08:54:43.472Z,57.22
2022-11-26T08:57:13.142Z,57.43
2022-11-26T09:06:40.188Z,57.69
2022-11-26T09:09:15.059Z,57.57
2022-11-26T09:15:00.119Z,57.57
2022-11-26T09:20:44.083Z,57.72
2022-11-26T09:23:11.965Z,57.84
2022-11-26T09:25:43.801Z,57.65
2022-11-26T09:28:15.333Z,57.65
2022-11-26T09:30:43.446Z,57.55
2022-11-26T09:33:16.910Z,57.16
2022-11-26T09:47:04.368Z,57.49
2022-11-26T09:49:46.038Z,57.29
2022-11-26T09:52:26.700Z,57.11
2022-11-26T09:59:12.889Z,56.77
2022-11-26T10:01:55.313Z,56.91
2022-11-26T10:04:35.428Z,56.91
2022-11-26T10:11:49.222Z,56.73
2022-11-26T10:14:54.216Z,56.74
2022-11-26T10:18:07.494Z,56.56
2022-11-26T10:21:13.647Z,56.52
2022-11-26T10:24:37.639Z,56.40
2022-11-26T10:27:29.264Z,56.33
2022-11-26T10:30:21.076Z,56.25
2022-11-26T10:32:51.451Z,56.26
2022-11-26T10:35:43.944Z,56.13
2022-11-26T10:39:08.739Z,55.96
2022-11-26T10:42:19.812Z,55.95
2022-11-26T10:44:58.488Z,56.04
2022-11-26T10:47:44.882Z,55.96
2022-11-26T10:53:23.585Z,55.80
2022-11-26T10:55:53.963Z,56.06
2022-11-26T11:01:23.872Z,56.18
2022-11-26T11:04:13.625Z,55.79
2022-11-26T11:06:44.209Z,55.54
2022-11-26T11:09:29.339Z,55.33
2022-11-26T11:12:23.814Z,55.40
2022-11-26T11:14:52.507Z,55.71
2022-11-26T11:17:41.154Z,55.58
2022-11-26T11:20:15.804Z,55.56
2022-11-26T11:22:46.974Z,55.68
2022-11-26T11:25:28.902Z,55.52
2022-11-26T11:28:18.817Z,55.53
2022-11-26T11:30:57.770Z,55.50
2022-11-26T11:33:28.562Z,55.55
2022-11-26T11:36:31.207Z,55.05
2022-11-26T11:39:02.843Z,55.32
2022-11-26T11:41:45.640Z,55.69
2022-11-26T11:44:25.800Z,55.13
2022-11-26T11:47:13.199Z,54.93
2022-11-26T11:50:05.574Z,55.25
2022-11-26T11:53:21.440Z,54.78
2022-11-26T11:56:21.319Z,54.61
2022-11-26T11:59:24.755Z,54.39
2022-11-26T12:02:27.287Z,54.36
2022-11-26T12:05:19.064Z,54.40
2022-11-26T12:08:50.819Z,54.00
2022-11-26T12:11:29.369Z,54.11
2022-11-26T12:14:31.274Z,53.97
2022-11-26T12:17:16.569Z,53.96
2022-11-26T12:20:01.446Z,53.82
2022-11-26T12:22:44.817Z,53.56
2022-11-26T12:25:37.261Z,53.57
2022-11-26T12:28:17.885Z,53.69
2022-11-26T12:31:06.165Z,53.64
2022-11-26T12:34:09.968Z,53.61
2022-11-26T12:36:51.429Z,53.67
2022-11-26T12:39:53.164Z,53.41
2022-11-26T12:42:47.314Z,54.13
2022-11-26T12:45:21.158Z,53.95
2022-11-26T12:48:03.140Z,53.43
2022-11-26T12:50:45.107Z,53.37
2022-11-26T12:53:45.417Z,53.10
2022-11-26T12:56:33.063Z,52.97
2022-11-26T12:59:03.935Z,53.20
2022-11-26T13:01:33.597Z,53.05
2022-11-26T13:04:29.856Z,52.94
2022-11-26T13:07:14.230Z,52.50
2022-11-26T13:10:16.622Z,52.49
2022-11-26T13:13:32.154Z,52.41
2022-11-26T13:16:10.502Z,52.39
2022-11-26T13:18:53.322Z,52.31
2022-11-26T13:21:40.103Z,52.02
2022-11-26T13:24:19.108Z,52.25
2022-11-26T13:27:15.767Z,52.23
2022-11-26T13:30:20.909Z,52.39
2022-11-26T13:33:24.092Z,52.42
2022-11-26T13:36:15.801Z,52.48
2022-11-26T13:38:54.843Z,52.50
2022-11-26T13:42:14.555Z,52.24
2022-11-26T13:45:11.730Z,52.43
2022-11-26T13:47:55.755Z,52.50
2022-11-26T13:50:35.306Z,52.41
2022-11-26T13:53:27.216Z,52.32
2022-11-26T13:56:06.558Z,52.24
2022-11-26T13:58:48.017Z,52.21
2022-11-26T14:01:28.556Z,52.70
2022-11-26T14:03:58.024Z,52.54
2022-11-26T14:06:28.082Z,52.31
2022-11-26T14:08:58.411Z,52.40
2022-11-26T14:11:41.941Z,52.23
2022-11-26T14:14:25.343Z,52.21
2022-11-26T14:17:02.456Z,52.10
2022-11-26T14:19:56.928Z,51.95
2022-11-26T14:22:36.590Z,52.07
2022-11-26T14:25:12.286Z,52.07
2022-11-26T14:27:55.975Z,52.01
2022-11-26T14:30:27.701Z,52.10
2022-11-26T14:33:31.347Z,51.98
2022-11-26T14:35:59.697Z,52.10
2022-11-26T14:38:31.792Z,51.90
2022-11-26T14:41:01.569Z,51.98
2022-11-26T14:43:30.081Z,51.95
2022-11-26T14:46:15.060Z,51.67
2022-11-26T14:48:50.508Z,51.70
2022-11-26T14:51:25.277Z,51.74
2022-11-26T14:53:56.383Z,51.73
2022-11-26T14:56:25.843Z,51.78
2022-11-26T14:58:58.690Z,51.57
2022-11-26T15:01:33.076Z,51.63
2022-11-26T15:04:06.958Z,51.69
2022-11-26T15:06:43.310Z,51.43
2022-11-26T15:09:19.471Z,51.43
2022-11-26T15:12:14.329Z,51.40
2022-11-26T15:14:59.129Z,51.47
2022-11-26T15:17:30.907Z,51.38
2022-11-26T15:20:06.872Z,51.36
2022-11-26T15:22:42.605Z,51.44
2022-11-26T15:25:38.474Z,51.42
2022-11-26T15:28:17.729Z,51.37
2022-11-26T15:31:05.597Z,51.35
2022-11-26T15:33:35.857Z,51.39
2022-11-26T15:36:06.842Z,51.38
2022-11-26T15:38:38.651Z,51.40
2022-11-26T15:41:19.523Z,51.28
2022-11-26T15:43:52.736Z,51.53
2022-11-26T15:46:35.159Z,51.29
2022-11-26T15:49:08.214Z,51.47
2022-11-26T15:51:50.013Z,51.42
2022-11-26T15:54:24.634Z,51.41
2022-11-26T15:57:07.702Z,51.26
2022-11-26T15:59:51.748Z,51.22
2022-11-26T16:02:23.742Z,51.79
2022-11-26T16:04:56.711Z,51.45
2022-11-26T16:07:28.457Z,51.48
2022-11-26T16:10:22.501Z,51.53
2022-11-26T16:13:15.901Z,51.74
2022-11-26T16:16:08.343Z,51.72
2022-11-26T16:18:59.964Z,51.84
2022-11-26T16:21:34.337Z,51.76
2022-11-26T16:24:36.229Z,51.72
2022-11-26T16:27:07.838Z,51.70
2022-11-26T16:29:36.301Z,51.95
2022-11-26T16:32:24.441Z,52.01
2022-11-26T16:34:52.796Z,52.02
2022-11-26T16:37:31.959Z,52.12
2022-11-26T16:40:13.485Z,52.23
2022-11-26T16:42:43.144Z,52.19
2022-11-26T16:45:13.316Z,52.19
2022-11-26T16:47:53.861Z,51.90
2022-11-26T16:50:26.644Z,52.46
2022-11-26T16:52:55.790Z,51.88
2022-11-26T16:55:27.905Z,52.26
2022-11-26T16:58:01.393Z,51.68
2022-11-26T17:00:30.964Z,52.23
2022-11-26T17:02:59.082Z,52.00
2022-11-26T17:05:27.263Z,52.25
2022-11-26T17:07:59.077Z,52.32
2022-11-26T17:10:29.869Z,51.94
2022-11-26T17:12:59.295Z,52.00
2022-11-26T17:15:27.152Z,51.93
2022-11-26T17:18:02.425Z,52.10
2022-11-26T17:20:31.614Z,52.19
2022-11-26T17:22:59.989Z,52.22
2022-11-26T17:25:27.990Z,52.28
2022-11-26T17:27:55.899Z,52.25
2022-11-26T17:30:24.896Z,52.37
2022-11-26T17:32:53.159Z,52.59
2022-11-26T17:35:21.411Z,52.68
2022-11-26T17:37:49.827Z,52.53
2022-11-26T17:40:23.676Z,52.64
2022-11-26T17:42:51.959Z,52.50
2022-11-26T17:45:20.590Z,52.41
2022-11-26T17:47:49.523Z,52.48
2022-11-26T17:50:25.859Z,52.29
2022-11-26T17:52:55.057Z,52.25
2022-11-26T17:55:26.311Z,52.36
2022-11-26T17:57:55.459Z,52.41
2022-11-26T18:00:31.118Z,52.39
2022-11-26T18:02:59.693Z,52.41
2022-11-26T18:05:28.216Z,52.38
2022-11-26T18:07:56.359Z,52.41
2022-11-26T18:10:24.703Z,52.67
2022-11-26T18:12:54.695Z,52.51
2022-11-26T18:15:26.412Z,52.85
2022-11-26T18:17:56.034Z,52.65
2022-11-26T18:20:27.634Z,52.81
2022-11-26T18:22:57.510Z,52.95
2022-11-26T18:25:26.343Z,52.98
2022-11-26T18:27:54.429Z,52.58
2022-11-26T18:30:22.444Z,52.51
2022-11-26T18:32:50.364Z,52.83
2022-11-26T18:35:19.973Z,52.76
2022-11-26T18:37:48.759Z,52.91
2022-11-26T18:40:18.457Z,52.95
2022-11-26T18:42:51.477Z,52.96
2022-11-26T18:45:19.548Z,53.01
2022-11-26T18:47:47.862Z,53.17
2022-11-26T18:50:15.899Z,53.16
2022-11-26T18:52:43.939Z,53.02
2022-11-26T18:55:16.160Z,53.23
2022-11-26T18:57:44.419Z,53.38
2022-11-26T19:00:14.274Z,53.54
2022-11-26T19:02:42.304Z,53.40
2022-11-26T19:05:11.245Z,53.46
2022-11-26T19:07:39.959Z,53.68
2022-11-26T19:10:09.268Z,53.63
2022-11-26T19:12:40.648Z,53.43
2022-11-26T19:15:08.953Z,53.65
2022-11-26T19:17:38.289Z,53.64
2022-11-26T19:20:07.724Z,53.48
2022-11-26T19:22:37.322Z,53.47
2022-11-26T19:25:06.473Z,53.58
2022-11-26T19:27:35.814Z,53.58
2022-11-26T19:30:05.376Z,53.75
2022-11-26T19:32:34.050Z,53.67
2022-11-26T19:35:05.797Z,53.44
2022-11-26T19:37:34.660Z,53.52
2022-11-26T19:40:06.446Z,53.27
2022-11-26T19:42:36.078Z,53.45
2022-11-26T19:45:04.885Z,53.30
2022-11-26T19:47:33.224Z,53.24
2022-11-26T19:50:01.566Z,53.31
2022-11-26T19:52:30.045Z,53.30
2022-11-26T19:54:58.804Z,52.83
2022-11-26T19:57:26.866Z,52.76
2022-11-26T19:59:54.796Z,52.93
2022-11-26T20:02:23.048Z,52.95
2022-11-26T20:04:51.407Z,52.83
2022-11-26T20:07:19.527Z,52.76
2022-11-26T20:09:52.318Z,52.60
2022-11-26T20:12:20.718Z,52.58
2022-11-26T20:14:49.191Z,53.03
2022-11-26T20:17:17.965Z,52.66
2022-11-26T20:19:46.210Z,52.67
2022-11-26T20:22:14.910Z,52.45
2022-11-26T20:24:43.318Z,52.29
2022-11-26T20:27:12.920Z,52.62
2022-11-26T20:29:40.970Z,52.66
2022-11-26T20:32:09.827Z,52.41
2022-11-26T20:34:38.232Z,52.53
2022-11-26T20:37:06.542Z,52.49
2022-11-26T20:39:38.217Z,52.75
2022-11-26T20:42:07.135Z,52.79
2022-11-26T20:44:35.485Z,52.63
2022-11-26T20:47:04.046Z,52.61
2022-11-26T20:49:36.011Z,52.59
2022-11-26T20:52:09.160Z,52.32
2022-11-26T20:54:37.475Z,52.31
2022-11-26T20:57:07.055Z,52.31
2022-11-26T20:59:35.772Z,52.29
2022-11-26T21:02:04.769Z,52.54
2022-11-26T21:04:33.957Z,52.71
2022-11-26T21:07:02.897Z,52.70
2022-11-26T21:09:32.355Z,53.00
2022-11-26T21:12:00.702Z,53.13
2022-11-26T21:14:30.997Z,53.09
2022-11-26T21:17:00.106Z,53.22
2022-11-26T21:19:29.897Z,53.04
2022-11-26T21:21:59.327Z,53.24
2022-11-26T21:24:27.811Z,53.28
2022-11-26T21:26:56.316Z,53.12
2022-11-26T21:29:24.541Z,53.21
2022-11-26T21:31:53.171Z,53.03
2022-11-26T21:34:21.956Z,53.43
2022-11-26T21:36:50.101Z,52.97
2022-11-26T21:39:18.318Z,52.95
2022-11-26T21:41:46.841Z,53.27
2022-11-26T21:44:15.268Z,53.21
2022-11-26T21:46:43.534Z,53.11
2022-11-26T21:49:12.070Z,53.30
2022-11-26T21:51:41.025Z,53.40
2022-11-26T21:54:09.916Z,53.41
2022-11-26T21:56:38.525Z,53.42
2022-11-26T21:59:06.530Z,53.55
2022-11-26T22:01:38.320Z,53.62
2022-11-26T22:04:14.992Z,53.53
2022-11-26T22:06:47.759Z,53.57
2022-11-26T22:09:17.537Z,53.58
2022-11-26T22:11:46.607Z,53.78
2022-11-26T22:14:17.119Z,53.53
2022-11-26T22:16:48.205Z,53.85
2022-11-26T22:19:16.414Z,53.68
2022-11-26T22:21:44.894Z,53.97
2022-11-26T22:24:20.681Z,53.81
2022-11-26T22:26:48.883Z,54.12
2022-11-26T22:29:19.116Z,54.02
2022-11-26T22:31:48.390Z,54.05
2022-11-26T22:34:21.793Z,53.90
2022-11-26T22:36:49.784Z,54.06
2022-11-26T22:39:18.801Z,53.79
2022-11-26T22:41:48.658Z,53.83
2022-11-26T22:44:18.288Z,53.69
2022-11-26T22:46:46.959Z,53.92
2022-11-26T22:49:18.080Z,53.71
2022-11-26T22:51:47.449Z,53.56
2022-11-26T22:54:18.284Z,53.62
2022-11-26T22:56:47.767Z,53.70
2022-11-26T22:59:15.754Z,53.65
2022-11-26T23:01:43.708Z,53.63
2022-11-26T23:04:12.585Z,53.65
2022-11-26T23:06:40.571Z,53.66
2022-11-26T23:09:10.001Z,53.58
2022-11-26T23:11:41.615Z,53.46
2022-11-26T23:14:12.015Z,53.72
2022-11-26T23:16:42.769Z,53.62
2022-11-26T23:19:15.502Z,53.59
2022-11-26T23:21:46.613Z,53.88
2022-11-26T23:24:16.653Z,53.82
2022-11-26T23:26:44.990Z,53.68
2022-11-26T23:29:13.940Z,53.81
2022-11-26T23:31:44.582Z,53.56
2022-11-26T23:34:13.373Z,53.68
2022-11-26T23:36:41.707Z,53.86
2022-11-26T23:39:13.622Z,53.81
2022-11-26T23:41:41.785Z,53.88
2022-11-26T23:44:09.722Z,53.78
2022-11-26T23:46:37.893Z,53.77
2022-11-26T23:49:06.867Z,53.87
2022-11-26T23:51:35.008Z,53.78
2022-11-26T23:54:03.319Z,53.88
2022-11-26T23:56:33.904Z,53.90
2022-11-26T23:59:04.760Z,53.85
